sensor_id;sensor_type;location;lat;lon;timestamp;P1;durP1;ratioP1;P2;durP2;ratioP2
23228;SDS011;11783;50.350;6.576;2022-09-01T00:00:38;12.43;;;9.65;;
23228;SDS011;11783;50.350;6.576;2022-09-01T00:03:22;13.32;;;10.32;;
23228;SDS011;11783;50.350;6.576;2022-09-01T00:05:48;11.85;;;8.63;;
23228;SDS011;11783;50.350;6.576;2022-09-01T00:08:15;10.88;;;8.50;;
23228;SDS011;11783;50.350;6.576;2022-09-01T00:10:40;10.65;;;8.88;;
23228;SDS011;11783;50.350;6.576;2022-09-01T00:13:06;12.45;;;9.75;;
23228;SDS011;11783;50.350;6.576;2022-09-01T00:15:33;14.02;;;10.00;;
23228;SDS011;11783;50.350;6.576;2022-09-01T00:18:00;14.07;;;10.60;;
23228;SDS011;11783;50.350;6.576;2022-09-01T00:20:26;12.73;;;9.55;;
23228;SDS011;11783;50.350;6.576;2022-09-01T00:22:52;13.30;;;10.18;;
23228;SDS011;11783;50.350;6.576;2022-09-01T00:25:18;11.70;;;9.43;;
23228;SDS011;11783;50.350;6.576;2022-09-01T00:27:44;13.63;;;10.27;;
23228;SDS011;11783;50.350;6.576;2022-09-01T00:30:13;12.45;;;9.70;;
23228;SDS011;11783;50.350;6.576;2022-09-01T00:32:39;11.95;;;9.88;;
23228;SDS011;11783;50.350;6.576;2022-09-01T00:35:10;13.40;;;10.73;;
23228;SDS011;11783;50.350;6.576;2022-09-01T00:37:36;13.20;;;10.90;;
23228;SDS011;11783;50.350;6.576;2022-09-01T00:40:01;14.60;;;9.95;;
23228;SDS011;11783;50.350;6.576;2022-09-01T00:42:28;9.23;;;7.72;;
23228;SDS011;11783;50.350;6.576;2022-09-01T00:44:53;11.25;;;8.50;;
23228;SDS011;11783;50.350;6.576;2022-09-01T00:47:18;11.20;;;9.25;;
23228;SDS011;11783;50.350;6.576;2022-09-01T00:49:44;10.05;;;8.50;;
23228;SDS011;11783;50.350;6.576;2022-09-01T00:52:23;9.35;;;7.60;;
23228;SDS011;11783;50.350;6.576;2022-09-01T00:54:58;12.73;;;8.52;;
23228;SDS011;11783;50.350;6.576;2022-09-01T00:57:25;11.00;;;8.60;;
23228;SDS011;11783;50.350;6.576;2022-09-01T00:59:53;14.60;;;10.65;;
23228;SDS011;11783;50.350;6.576;2022-09-01T01:02:23;12.48;;;9.82;;
23228;SDS011;11783;50.350;6.576;2022-09-01T01:04:49;14.95;;;10.80;;
23228;SDS011;11783;50.350;6.576;2022-09-01T01:07:16;11.77;;;8.05;;
23228;SDS011;11783;50.350;6.576;2022-09-01T01:09:46;12.90;;;10.07;;
23228;SDS011;11783;50.350;6.576;2022-09-01T01:12:12;10.88;;;8.73;;
23228;SDS011;11783;50.350;6.576;2022-09-01T01:14:43;17.05;;;11.10;;
23228;SDS011;11783;50.350;6.576;2022-09-01T01:17:14;12.93;;;9.68;;
23228;SDS011;11783;50.350;6.576;2022-09-01T01:19:41;10.05;;;8.30;;
23228;SDS011;11783;50.350;6.576;2022-09-01T01:22:34;14.00;;;9.50;;
23228;SDS011;11783;50.350;6.576;2022-09-01T01:25:22;10.88;;;8.73;;
23228;SDS011;11783;50.350;6.576;2022-09-01T01:27:48;13.25;;;9.82;;
23228;SDS011;11783;50.350;6.576;2022-09-01T01:30:14;12.90;;;10.13;;
23228;SDS011;11783;50.350;6.576;2022-09-01T01:32:42;13.40;;;10.77;;
23228;SDS011;11783;50.350;6.576;2022-09-01T01:35:10;10.63;;;9.32;;
23228;SDS011;11783;50.350;6.576;2022-09-01T01:37:39;12.32;;;9.10;;
23228;SDS011;11783;50.350;6.576;2022-09-01T01:40:08;8.88;;;6.82;;
23228;SDS011;11783;50.350;6.576;2022-09-01T01:42:39;10.93;;;8.52;;
23228;SDS011;11783;50.350;6.576;2022-09-01T01:45:13;12.75;;;9.30;;
23228;SDS011;11783;50.350;6.576;2022-09-01T01:47:41;12.63;;;9.27;;
23228;SDS011;11783;50.350;6.576;2022-09-01T01:50:10;16.08;;;10.88;;
23228;SDS011;11783;50.350;6.576;2022-09-01T01:52:36;13.70;;;10.73;;
23228;SDS011;11783;50.350;6.576;2022-09-01T01:55:02;14.50;;;10.68;;
23228;SDS011;11783;50.350;6.576;2022-09-01T01:57:27;13.40;;;10.07;;
23228;SDS011;11783;50.350;6.576;2022-09-01T01:59:59;12.43;;;10.38;;
23228;SDS011;11783;50.350;6.576;2022-09-01T02:02:25;16.50;;;11.13;;
23228;SDS011;11783;50.350;6.576;2022-09-01T02:04:51;11.30;;;9.02;;
23228;SDS011;11783;50.350;6.576;2022-09-01T02:07:17;13.52;;;9.75;;
23228;SDS011;11783;50.350;6.576;2022-09-01T02:09:42;11.75;;;9.75;;
23228;SDS011;11783;50.350;6.576;2022-09-01T02:12:10;12.52;;;9.63;;
23228;SDS011;11783;50.350;6.576;2022-09-01T02:14:35;11.15;;;9.18;;
23228;SDS011;11783;50.350;6.576;2022-09-01T02:17:01;11.93;;;9.82;;
23228;SDS011;11783;50.350;6.576;2022-09-01T02:19:27;13.55;;;11.15;;
23228;SDS011;11783;50.350;6.576;2022-09-01T02:21:52;12.38;;;9.70;;
23228;SDS011;11783;50.350;6.576;2022-09-01T02:24:20;13.30;;;10.65;;
23228;SDS011;11783;50.350;6.576;2022-09-01T02:26:46;11.48;;;8.48;;
23228;SDS011;11783;50.350;6.576;2022-09-01T02:29:22;11.80;;;8.98;;
23228;SDS011;11783;50.350;6.576;2022-09-01T02:31:49;12.18;;;9.52;;
23228;SDS011;11783;50.350;6.576;2022-09-01T02:34:16;12.38;;;8.98;;
23228;SDS011;11783;50.350;6.576;2022-09-01T02:36:44;15.57;;;9.00;;
23228;SDS011;11783;50.350;6.576;2022-09-01T02:39:15;11.98;;;8.57;;
23228;SDS011;11783;50.350;6.576;2022-09-01T02:41:43;14.68;;;10.80;;
23228;SDS011;11783;50.350;6.576;2022-09-01T02:44:08;13.30;;;10.90;;
23228;SDS011;11783;50.350;6.576;2022-09-01T02:46:40;12.65;;;9.88;;
23228;SDS011;11783;50.350;6.576;2022-09-01T02:49:20;12.95;;;9.68;;
23228;SDS011;11783;50.350;6.576;2022-09-01T02:51:52;15.18;;;11.35;;
23228;SDS011;11783;50.350;6.576;2022-09-01T02:54:22;14.50;;;11.40;;
23228;SDS011;11783;50.350;6.576;2022-09-01T02:56:50;14.18;;;10.38;;
23228;SDS011;11783;50.350;6.576;2022-09-01T02:59:18;14.98;;;11.57;;
23228;SDS011;11783;50.350;6.576;2022-09-01T03:01:46;15.82;;;11.20;;
23228;SDS011;11783;50.350;6.576;2022-09-01T03:04:15;11.95;;;9.70;;
23228;SDS011;11783;50.350;6.576;2022-09-01T03:06:42;13.07;;;9.90;;
23228;SDS011;11783;50.350;6.576;2022-09-01T03:09:08;13.90;;;10.95;;
23228;SDS011;11783;50.350;6.576;2022-09-01T03:11:41;12.15;;;9.85;;
23228;SDS011;11783;50.350;6.576;2022-09-01T03:16:34;13.55;;;10.82;;
23228;SDS011;11783;50.350;6.576;2022-09-01T03:19:01;13.75;;;10.98;;
23228;SDS011;11783;50.350;6.576;2022-09-01T03:21:27;13.70;;;10.35;;
23228;SDS011;11783;50.350;6.576;2022-09-01T03:23:55;14.02;;;11.50;;
23228;SDS011;11783;50.350;6.576;2022-09-01T03:26:22;16.52;;;11.43;;
23228;SDS011;11783;50.350;6.576;2022-09-01T03:28:49;13.77;;;11.02;;
23228;SDS011;11783;50.350;6.576;2022-09-01T03:31:16;13.10;;;9.88;;
23228;SDS011;11783;50.350;6.576;2022-09-01T03:33:42;12.95;;;9.77;;
23228;SDS011;11783;50.350;6.576;2022-09-01T03:36:07;15.95;;;11.40;;
23228;SDS011;11783;50.350;6.576;2022-09-01T03:38:33;13.75;;;10.68;;
23228;SDS011;11783;50.350;6.576;2022-09-01T03:40:59;14.02;;;11.27;;
23228;SDS011;11783;50.350;6.576;2022-09-01T03:43:27;14.20;;;11.00;;
23228;SDS011;11783;50.350;6.576;2022-09-01T03:45:55;14.38;;;11.07;;
23228;SDS011;11783;50.350;6.576;2022-09-01T03:48:23;15.13;;;11.18;;
23228;SDS011;11783;50.350;6.576;2022-09-01T03:50:52;13.98;;;11.32;;
23228;SDS011;11783;50.350;6.576;2022-09-01T03:53:20;15.93;;;11.55;;
23228;SDS011;11783;50.350;6.576;2022-09-01T03:55:47;13.90;;;10.25;;
23228;SDS011;11783;50.350;6.576;2022-09-01T03:58:14;14.48;;;10.68;;
23228;SDS011;11783;50.350;6.576;2022-09-01T04:00:43;13.70;;;11.05;;
23228;SDS011;11783;50.350;6.576;2022-09-01T04:03:11;13.93;;;10.57;;
23228;SDS011;11783;50.350;6.576;2022-09-01T04:05:38;14.25;;;10.15;;
23228;SDS011;11783;50.350;6.576;2022-09-01T04:08:07;12.32;;;9.98;;
23228;SDS011;11783;50.350;6.576;2022-09-01T04:10:35;12.27;;;10.38;;
23228;SDS011;11783;50.350;6.576;2022-09-01T04:13:06;11.57;;;8.30;;
23228;SDS011;11783;50.350;6.576;2022-09-01T04:15:36;13.57;;;10.70;;
23228;SDS011;11783;50.350;6.576;2022-09-01T04:18:02;12.57;;;10.35;;
23228;SDS011;11783;50.350;6.576;2022-09-01T04:20:35;12.25;;;9.70;;
23228;SDS011;11783;50.350;6.576;2022-09-01T04:23:12;14.60;;;9.98;;
23228;SDS011;11783;50.350;6.576;2022-09-01T04:26:11;15.20;;;9.77;;
23228;SDS011;11783;50.350;6.576;2022-09-01T04:28:39;13.95;;;10.68;;
23228;SDS011;11783;50.350;6.576;2022-09-01T04:31:14;13.85;;;10.80;;
23228;SDS011;11783;50.350;6.576;2022-09-01T04:33:41;12.23;;;10.40;;
23228;SDS011;11783;50.350;6.576;2022-09-01T04:38:56;14.43;;;11.57;;
23228;SDS011;11783;50.350;6.576;2022-09-01T04:41:24;12.88;;;11.00;;
23228;SDS011;11783;50.350;6.576;2022-09-01T04:43:52;16.00;;;10.63;;
23228;SDS011;11783;50.350;6.576;2022-09-01T04:46:21;13.63;;;11.07;;
23228;SDS011;11783;50.350;6.576;2022-09-01T04:48:47;13.07;;;9.93;;
23228;SDS011;11783;50.350;6.576;2022-09-01T04:51:16;13.75;;;10.63;;
23228;SDS011;11783;50.350;6.576;2022-09-01T04:53:42;11.90;;;9.15;;
23228;SDS011;11783;50.350;6.576;2022-09-01T04:56:13;13.13;;;10.57;;
23228;SDS011;11783;50.350;6.576;2022-09-01T04:58:43;17.20;;;11.23;;
23228;SDS011;11783;50.350;6.576;2022-09-01T05:01:14;14.65;;;11.55;;
23228;SDS011;11783;50.350;6.576;2022-09-01T05:03:41;14.68;;;10.55;;
23228;SDS011;11783;50.350;6.576;2022-09-01T05:06:17;17.67;;;12.27;;
23228;SDS011;11783;50.350;6.576;2022-09-01T05:08:44;17.13;;;12.85;;
23228;SDS011;11783;50.350;6.576;2022-09-01T05:11:10;14.02;;;11.23;;
23228;SDS011;11783;50.350;6.576;2022-09-01T05:13:38;18.95;;;12.40;;
23228;SDS011;11783;50.350;6.576;2022-09-01T05:16:05;18.70;;;13.00;;
23228;SDS011;11783;50.350;6.576;2022-09-01T05:18:36;16.67;;;12.32;;
23228;SDS011;11783;50.350;6.576;2022-09-01T05:21:08;15.20;;;12.15;;
23228;SDS011;11783;50.350;6.576;2022-09-01T05:23:35;17.67;;;12.27;;
23228;SDS011;11783;50.350;6.576;2022-09-01T05:26:01;14.25;;;11.23;;
23228;SDS011;11783;50.350;6.576;2022-09-01T05:28:30;16.63;;;12.93;;
23228;SDS011;11783;50.350;6.576;2022-09-01T05:30:58;18.05;;;11.88;;
23228;SDS011;11783;50.350;6.576;2022-09-01T05:33:24;17.25;;;14.07;;
23228;SDS011;11783;50.350;6.576;2022-09-01T05:35:54;17.13;;;13.68;;
23228;SDS011;11783;50.350;6.576;2022-09-01T05:38:21;17.15;;;12.73;;
23228;SDS011;11783;50.350;6.576;2022-09-01T05:40:54;16.92;;;13.48;;
23228;SDS011;11783;50.350;6.576;2022-09-01T05:43:28;18.90;;;12.95;;
23228;SDS011;11783;50.350;6.576;2022-09-01T05:45:58;17.85;;;13.07;;
23228;SDS011;11783;50.350;6.576;2022-09-01T05:48:28;14.07;;;11.43;;
23228;SDS011;11783;50.350;6.576;2022-09-01T05:50:56;14.82;;;11.85;;
23228;SDS011;11783;50.350;6.576;2022-09-01T05:53:24;14.27;;;11.63;;
23228;SDS011;11783;50.350;6.576;2022-09-01T05:55:51;16.42;;;12.15;;
23228;SDS011;11783;50.350;6.576;2022-09-01T05:58:25;15.27;;;12.00;;
23228;SDS011;11783;50.350;6.576;2022-09-01T06:00:52;14.40;;;11.77;;
23228;SDS011;11783;50.350;6.576;2022-09-01T06:03:20;16.77;;;12.40;;
23228;SDS011;11783;50.350;6.576;2022-09-01T06:05:46;21.30;;;15.15;;
23228;SDS011;11783;50.350;6.576;2022-09-01T06:08:16;22.33;;;14.30;;
23228;SDS011;11783;50.350;6.576;2022-09-01T06:10:44;19.15;;;14.75;;
23228;SDS011;11783;50.350;6.576;2022-09-01T06:13:10;16.60;;;12.85;;
23228;SDS011;11783;50.350;6.576;2022-09-01T06:15:40;20.88;;;15.35;;
23228;SDS011;11783;50.350;6.576;2022-09-01T06:18:06;16.70;;;13.70;;
23228;SDS011;11783;50.350;6.576;2022-09-01T06:20:37;19.58;;;14.60;;
23228;SDS011;11783;50.350;6.576;2022-09-01T06:23:04;18.92;;;15.40;;
23228;SDS011;11783;50.350;6.576;2022-09-01T06:25:30;20.52;;;14.93;;
23228;SDS011;11783;50.350;6.576;2022-09-01T06:27:55;20.45;;;16.33;;
23228;SDS011;11783;50.350;6.576;2022-09-01T06:30:21;19.40;;;16.35;;
23228;SDS011;11783;50.350;6.576;2022-09-01T06:32:49;19.77;;;15.07;;
23228;SDS011;11783;50.350;6.576;2022-09-01T06:35:15;19.38;;;15.68;;
23228;SDS011;11783;50.350;6.576;2022-09-01T06:37:42;17.42;;;13.63;;
23228;SDS011;11783;50.350;6.576;2022-09-01T06:40:08;21.35;;;17.08;;
23228;SDS011;11783;50.350;6.576;2022-09-01T06:42:41;19.75;;;17.17;;
23228;SDS011;11783;50.350;6.576;2022-09-01T06:45:08;20.75;;;16.77;;
23228;SDS011;11783;50.350;6.576;2022-09-01T06:47:34;19.35;;;15.32;;
23228;SDS011;11783;50.350;6.576;2022-09-01T06:50:00;24.67;;;18.70;;
23228;SDS011;11783;50.350;6.576;2022-09-01T06:52:26;21.20;;;17.25;;
23228;SDS011;11783;50.350;6.576;2022-09-01T06:54:51;20.30;;;16.80;;
23228;SDS011;11783;50.350;6.576;2022-09-01T06:57:18;21.90;;;16.92;;
23228;SDS011;11783;50.350;6.576;2022-09-01T06:59:43;17.35;;;14.52;;
23228;SDS011;11783;50.350;6.576;2022-09-01T07:02:10;22.35;;;18.23;;
23228;SDS011;11783;50.350;6.576;2022-09-01T07:04:40;22.55;;;18.08;;
23228;SDS011;11783;50.350;6.576;2022-09-01T07:07:10;21.58;;;17.35;;
23228;SDS011;11783;50.350;6.576;2022-09-01T07:09:37;17.73;;;15.00;;
23228;SDS011;11783;50.350;6.576;2022-09-01T07:12:04;21.75;;;16.90;;
23228;SDS011;11783;50.350;6.576;2022-09-01T07:14:30;19.08;;;15.65;;
23228;SDS011;11783;50.350;6.576;2022-09-01T07:16:55;16.30;;;13.63;;
23228;SDS011;11783;50.350;6.576;2022-09-01T07:19:22;17.98;;;16.05;;
23228;SDS011;11783;50.350;6.576;2022-09-01T07:21:50;17.42;;;14.68;;
23228;SDS011;11783;50.350;6.576;2022-09-01T07:24:16;17.77;;;14.65;;
23228;SDS011;11783;50.350;6.576;2022-09-01T07:26:44;14.80;;;13.20;;
23228;SDS011;11783;50.350;6.576;2022-09-01T07:29:13;15.20;;;13.60;;
23228;SDS011;11783;50.350;6.576;2022-09-01T07:31:40;15.88;;;12.50;;
23228;SDS011;11783;50.350;6.576;2022-09-01T07:34:08;14.05;;;12.55;;
23228;SDS011;11783;50.350;6.576;2022-09-01T07:36:37;15.23;;;11.48;;
23228;SDS011;11783;50.350;6.576;2022-09-01T07:39:07;13.85;;;10.30;;
23228;SDS011;11783;50.350;6.576;2022-09-01T07:41:33;11.60;;;10.40;;
23228;SDS011;11783;50.350;6.576;2022-09-01T07:44:00;11.27;;;9.13;;
23228;SDS011;11783;50.350;6.576;2022-09-01T07:46:27;12.40;;;8.85;;
23228;SDS011;11783;50.350;6.576;2022-09-01T07:48:56;9.55;;;8.18;;
23228;SDS011;11783;50.350;6.576;2022-09-01T07:51:23;11.65;;;7.90;;
23228;SDS011;11783;50.350;6.576;2022-09-01T07:53:50;8.63;;;6.57;;
23228;SDS011;11783;50.350;6.576;2022-09-01T07:56:17;6.82;;;4.85;;
23228;SDS011;11783;50.350;6.576;2022-09-01T07:58:44;6.90;;;4.00;;
23228;SDS011;11783;50.350;6.576;2022-09-01T08:01:15;5.72;;;3.92;;
23228;SDS011;11783;50.350;6.576;2022-09-01T08:03:43;6.40;;;3.90;;
23228;SDS011;11783;50.350;6.576;2022-09-01T08:06:11;6.07;;;3.95;;
23228;SDS011;11783;50.350;6.576;2022-09-01T08:08:39;4.55;;;3.20;;
23228;SDS011;11783;50.350;6.576;2022-09-01T08:11:05;4.60;;;3.00;;
23228;SDS011;11783;50.350;6.576;2022-09-01T08:13:32;4.63;;;3.30;;
23228;SDS011;11783;50.350;6.576;2022-09-01T08:16:02;5.05;;;3.70;;
23228;SDS011;11783;50.350;6.576;2022-09-01T08:18:30;4.93;;;2.83;;
23228;SDS011;11783;50.350;6.576;2022-09-01T08:20:55;4.97;;;3.10;;
23228;SDS011;11783;50.350;6.576;2022-09-01T08:23:21;5.25;;;3.40;;
23228;SDS011;11783;50.350;6.576;2022-09-01T08:25:50;6.18;;;3.70;;
23228;SDS011;11783;50.350;6.576;2022-09-01T08:28:16;6.72;;;3.50;;
23228;SDS011;11783;50.350;6.576;2022-09-01T08:30:42;6.05;;;3.10;;
23228;SDS011;11783;50.350;6.576;2022-09-01T08:33:09;6.60;;;2.90;;
23228;SDS011;11783;50.350;6.576;2022-09-01T08:35:37;5.22;;;3.38;;
23228;SDS011;11783;50.350;6.576;2022-09-01T08:38:03;4.20;;;2.80;;
23228;SDS011;11783;50.350;6.576;2022-09-01T08:40:28;6.38;;;3.58;;
23228;SDS011;11783;50.350;6.576;2022-09-01T08:45:47;4.13;;;2.88;;
23228;SDS011;11783;50.350;6.576;2022-09-01T08:48:25;8.38;;;3.20;;
23228;SDS011;11783;50.350;6.576;2022-09-01T08:50:59;5.60;;;2.80;;
23228;SDS011;11783;50.350;6.576;2022-09-01T08:53:34;5.20;;;2.78;;
23228;SDS011;11783;50.350;6.576;2022-09-01T08:56:02;5.07;;;2.90;;
23228;SDS011;11783;50.350;6.576;2022-09-01T08:58:30;5.00;;;2.55;;
23228;SDS011;11783;50.350;6.576;2022-09-01T09:00:58;4.40;;;2.97;;
23228;SDS011;11783;50.350;6.576;2022-09-01T09:14:02;4.47;;;2.83;;
23228;SDS011;11783;50.350;6.576;2022-09-01T09:16:43;4.32;;;2.60;;
23228;SDS011;11783;50.350;6.576;2022-09-01T09:19:20;4.72;;;3.00;;
23228;SDS011;11783;50.350;6.576;2022-09-01T09:21:57;6.97;;;2.40;;
23228;SDS011;11783;50.350;6.576;2022-09-01T09:24:28;5.30;;;2.85;;
23228;SDS011;11783;50.350;6.576;2022-09-01T09:27:48;5.15;;;2.63;;
23228;SDS011;11783;50.350;6.576;2022-09-01T09:30:08;4.47;;;2.40;;
23228;SDS011;11783;50.350;6.576;2022-09-01T09:37:55;4.13;;;2.78;;
23228;SDS011;11783;50.350;6.576;2022-09-01T09:43:31;5.72;;;2.65;;
23228;SDS011;11783;50.350;6.576;2022-09-01T09:51:37;4.10;;;2.53;;
23228;SDS011;11783;50.350;6.576;2022-09-01T09:56:47;4.97;;;2.40;;
23228;SDS011;11783;50.350;6.576;2022-09-01T09:59:26;5.75;;;2.42;;
23228;SDS011;11783;50.350;6.576;2022-09-01T10:01:58;4.72;;;2.58;;
23228;SDS011;11783;50.350;6.576;2022-09-01T10:04:38;4.57;;;2.42;;
23228;SDS011;11783;50.350;6.576;2022-09-01T10:07:26;6.15;;;2.38;;
23228;SDS011;11783;50.350;6.576;2022-09-01T10:09:53;5.68;;;2.85;;
23228;SDS011;11783;50.350;6.576;2022-09-01T10:12:22;6.65;;;2.72;;
23228;SDS011;11783;50.350;6.576;2022-09-01T10:14:50;4.40;;;2.25;;
23228;SDS011;11783;50.350;6.576;2022-09-01T10:17:22;4.80;;;2.30;;
23228;SDS011;11783;50.350;6.576;2022-09-01T10:19:56;4.78;;;2.70;;
23228;SDS011;11783;50.350;6.576;2022-09-01T10:22:29;5.25;;;2.70;;
23228;SDS011;11783;50.350;6.576;2022-09-01T10:24:55;4.15;;;2.35;;
23228;SDS011;11783;50.350;6.576;2022-09-01T10:27:22;7.18;;;2.63;;
23228;SDS011;11783;50.350;6.576;2022-09-01T10:32:41;6.70;;;2.78;;
23228;SDS011;11783;50.350;6.576;2022-09-01T10:35:20;5.45;;;2.60;;
23228;SDS011;11783;50.350;6.576;2022-09-01T10:37:51;5.72;;;2.70;;
23228;SDS011;11783;50.350;6.576;2022-09-01T10:40:20;3.92;;;2.38;;
23228;SDS011;11783;50.350;6.576;2022-09-01T10:43:22;5.07;;;2.30;;
23228;SDS011;11783;50.350;6.576;2022-09-01T10:45:57;6.07;;;2.63;;
23228;SDS011;11783;50.350;6.576;2022-09-01T10:48:30;7.15;;;2.80;;
23228;SDS011;11783;50.350;6.576;2022-09-01T10:51:40;5.70;;;2.75;;
23228;SDS011;11783;50.350;6.576;2022-09-01T11:14:54;4.50;;;3.05;;
23228;SDS011;11783;50.350;6.576;2022-09-01T11:17:27;5.57;;;3.00;;
23228;SDS011;11783;50.350;6.576;2022-09-01T11:20:03;6.10;;;3.08;;
23228;SDS011;11783;50.350;6.576;2022-09-01T11:25:12;5.82;;;2.75;;
23228;SDS011;11783;50.350;6.576;2022-09-01T11:27:59;4.00;;;2.60;;
23228;SDS011;11783;50.350;6.576;2022-09-01T11:32:56;5.63;;;3.08;;
23228;SDS011;11783;50.350;6.576;2022-09-01T11:35:25;4.25;;;2.53;;
23228;SDS011;11783;50.350;6.576;2022-09-01T11:37:56;4.38;;;2.45;;
23228;SDS011;11783;50.350;6.576;2022-09-01T11:40:32;8.00;;;3.03;;
23228;SDS011;11783;50.350;6.576;2022-09-01T11:42:59;5.35;;;2.65;;
23228;SDS011;11783;50.350;6.576;2022-09-01T11:45:30;4.63;;;2.60;;
23228;SDS011;11783;50.350;6.576;2022-09-01T11:47:59;7.07;;;2.60;;
23228;SDS011;11783;50.350;6.576;2022-09-01T11:53:42;4.60;;;2.60;;
23228;SDS011;11783;50.350;6.576;2022-09-01T11:55:48;7.28;;;2.78;;
23228;SDS011;11783;50.350;6.576;2022-09-01T12:03:45;5.85;;;2.95;;
23228;SDS011;11783;50.350;6.576;2022-09-01T12:06:18;4.78;;;2.35;;
23228;SDS011;11783;50.350;6.576;2022-09-01T12:08:53;7.05;;;2.90;;
23228;SDS011;11783;50.350;6.576;2022-09-01T12:11:32;4.30;;;2.55;;
23228;SDS011;11783;50.350;6.576;2022-09-01T12:14:03;4.50;;;2.42;;
23228;SDS011;11783;50.350;6.576;2022-09-01T12:16:29;4.97;;;2.67;;
23228;SDS011;11783;50.350;6.576;2022-09-01T12:18:58;5.95;;;2.50;;
23228;SDS011;11783;50.350;6.576;2022-09-01T12:21:34;3.90;;;2.42;;
23228;SDS011;11783;50.350;6.576;2022-09-01T12:24:17;4.72;;;2.83;;
23228;SDS011;11783;50.350;6.576;2022-09-01T12:26:44;5.13;;;2.80;;
23228;SDS011;11783;50.350;6.576;2022-09-01T12:29:12;3.60;;;2.30;;
23228;SDS011;11783;50.350;6.576;2022-09-01T12:31:39;4.88;;;2.50;;
23228;SDS011;11783;50.350;6.576;2022-09-01T12:34:58;4.53;;;2.67;;
23228;SDS011;11783;50.350;6.576;2022-09-01T12:37:23;7.20;;;2.80;;
23228;SDS011;11783;50.350;6.576;2022-09-01T12:39:51;4.35;;;2.58;;
23228;SDS011;11783;50.350;6.576;2022-09-01T12:45:01;4.93;;;2.53;;
23228;SDS011;11783;50.350;6.576;2022-09-01T12:50:00;4.32;;;2.50;;
23228;SDS011;11783;50.350;6.576;2022-09-01T12:55:21;4.55;;;2.25;;
23228;SDS011;11783;50.350;6.576;2022-09-01T12:57:51;5.05;;;2.33;;
23228;SDS011;11783;50.350;6.576;2022-09-01T13:00:24;4.25;;;2.17;;
23228;SDS011;11783;50.350;6.576;2022-09-01T13:05:34;3.47;;;2.05;;
23228;SDS011;11783;50.350;6.576;2022-09-01T13:08:21;3.83;;;2.40;;
23228;SDS011;11783;50.350;6.576;2022-09-01T13:11:13;3.78;;;2.20;;
23228;SDS011;11783;50.350;6.576;2022-09-01T13:13:38;6.32;;;2.40;;
23228;SDS011;11783;50.350;6.576;2022-09-01T13:16:04;3.30;;;2.13;;
23228;SDS011;11783;50.350;6.576;2022-09-01T13:18:36;4.85;;;2.53;;
23228;SDS011;11783;50.350;6.576;2022-09-01T13:21:03;3.45;;;2.30;;
23228;SDS011;11783;50.350;6.576;2022-09-01T13:23:28;3.90;;;2.17;;
23228;SDS011;11783;50.350;6.576;2022-09-01T13:25:54;4.18;;;2.38;;
23228;SDS011;11783;50.350;6.576;2022-09-01T13:28:19;4.47;;;2.53;;
23228;SDS011;11783;50.350;6.576;2022-09-01T13:30:49;4.07;;;2.28;;
23228;SDS011;11783;50.350;6.576;2022-09-01T13:35:45;4.43;;;2.20;;
23228;SDS011;11783;50.350;6.576;2022-09-01T13:38:11;4.88;;;2.17;;
23228;SDS011;11783;50.350;6.576;2022-09-01T13:40:40;4.32;;;2.30;;
23228;SDS011;11783;50.350;6.576;2022-09-01T13:43:05;4.25;;;2.20;;
23228;SDS011;11783;50.350;6.576;2022-09-01T13:45:30;4.85;;;2.33;;
23228;SDS011;11783;50.350;6.576;2022-09-01T13:47:56;5.40;;;2.65;;
23228;SDS011;11783;50.350;6.576;2022-09-01T13:50:21;5.38;;;2.40;;
23228;SDS011;11783;50.350;6.576;2022-09-01T13:52:52;3.25;;;2.10;;
23228;SDS011;11783;50.350;6.576;2022-09-01T13:55:26;5.05;;;2.70;;
23228;SDS011;11783;50.350;6.576;2022-09-01T13:57:53;3.40;;;2.20;;
23228;SDS011;11783;50.350;6.576;2022-09-01T14:00:21;4.30;;;2.45;;
23228;SDS011;11783;50.350;6.576;2022-09-01T14:02:49;3.78;;;2.47;;
23228;SDS011;11783;50.350;6.576;2022-09-01T14:05:21;5.60;;;2.13;;
23228;SDS011;11783;50.350;6.576;2022-09-01T14:07:49;4.68;;;2.38;;
23228;SDS011;11783;50.350;6.576;2022-09-01T14:10:15;3.35;;;2.28;;
23228;SDS011;11783;50.350;6.576;2022-09-01T14:12:41;6.55;;;2.50;;
23228;SDS011;11783;50.350;6.576;2022-09-01T14:15:08;4.80;;;2.25;;
23228;SDS011;11783;50.350;6.576;2022-09-01T14:17:35;5.63;;;2.42;;
23228;SDS011;11783;50.350;6.576;2022-09-01T14:20:03;4.55;;;2.17;;
23228;SDS011;11783;50.350;6.576;2022-09-01T14:22:32;5.80;;;2.70;;
23228;SDS011;11783;50.350;6.576;2022-09-01T14:24:58;4.75;;;2.63;;
23228;SDS011;11783;50.350;6.576;2022-09-01T14:27:24;7.40;;;2.42;;
23228;SDS011;11783;50.350;6.576;2022-09-01T14:29:50;4.97;;;2.35;;
23228;SDS011;11783;50.350;6.576;2022-09-01T14:32:17;4.88;;;2.60;;
23228;SDS011;11783;50.350;6.576;2022-09-01T14:34:46;4.45;;;2.53;;
23228;SDS011;11783;50.350;6.576;2022-09-01T14:37:12;4.60;;;2.70;;
23228;SDS011;11783;50.350;6.576;2022-09-01T14:39:38;5.78;;;3.03;;
23228;SDS011;11783;50.350;6.576;2022-09-01T14:42:04;3.83;;;2.58;;
23228;SDS011;11783;50.350;6.576;2022-09-01T14:44:37;4.82;;;2.50;;
23228;SDS011;11783;50.350;6.576;2022-09-01T14:47:03;4.97;;;2.70;;
23228;SDS011;11783;50.350;6.576;2022-09-01T14:49:30;5.68;;;2.35;;
23228;SDS011;11783;50.350;6.576;2022-09-01T14:52:01;4.70;;;2.53;;
23228;SDS011;11783;50.350;6.576;2022-09-01T14:54:31;7.35;;;2.60;;
23228;SDS011;11783;50.350;6.576;2022-09-01T14:56:58;3.83;;;2.50;;
23228;SDS011;11783;50.350;6.576;2022-09-01T14:59:24;4.32;;;2.30;;
23228;SDS011;11783;50.350;6.576;2022-09-01T15:01:49;5.63;;;2.55;;
23228;SDS011;11783;50.350;6.576;2022-09-01T15:04:15;4.80;;;2.85;;
23228;SDS011;11783;50.350;6.576;2022-09-01T15:06:40;3.92;;;2.53;;
23228;SDS011;11783;50.350;6.576;2022-09-01T15:09:05;5.15;;;2.75;;
23228;SDS011;11783;50.350;6.576;2022-09-01T15:11:31;4.70;;;2.50;;
23228;SDS011;11783;50.350;6.576;2022-09-01T15:13:56;4.40;;;2.33;;
23228;SDS011;11783;50.350;6.576;2022-09-01T15:16:23;6.18;;;2.60;;
23228;SDS011;11783;50.350;6.576;2022-09-01T15:18:50;4.13;;;2.60;;
23228;SDS011;11783;50.350;6.576;2022-09-01T15:21:24;2.88;;;2.00;;
23228;SDS011;11783;50.350;6.576;2022-09-01T15:23:57;3.95;;;2.20;;
23228;SDS011;11783;50.350;6.576;2022-09-01T15:26:23;5.57;;;2.00;;
23228;SDS011;11783;50.350;6.576;2022-09-01T15:28:49;5.00;;;2.33;;
23228;SDS011;11783;50.350;6.576;2022-09-01T15:31:15;4.28;;;2.17;;
23228;SDS011;11783;50.350;6.576;2022-09-01T15:33:43;6.63;;;2.00;;
23228;SDS011;11783;50.350;6.576;2022-09-01T15:36:13;4.70;;;2.22;;
23228;SDS011;11783;50.350;6.576;2022-09-01T15:38:43;5.05;;;2.60;;
23228;SDS011;11783;50.350;6.576;2022-09-01T15:41:09;4.00;;;2.22;;
23228;SDS011;11783;50.350;6.576;2022-09-01T15:43:43;6.03;;;2.60;;
23228;SDS011;11783;50.350;6.576;2022-09-01T15:46:08;3.75;;;2.15;;
23228;SDS011;11783;50.350;6.576;2022-09-01T15:48:35;4.88;;;2.40;;
23228;SDS011;11783;50.350;6.576;2022-09-01T15:51:07;4.57;;;2.20;;
23228;SDS011;11783;50.350;6.576;2022-09-01T15:53:55;5.10;;;2.90;;
23228;SDS011;11783;50.350;6.576;2022-09-01T15:56:22;5.07;;;2.13;;
23228;SDS011;11783;50.350;6.576;2022-09-01T15:58:48;4.60;;;2.90;;
23228;SDS011;11783;50.350;6.576;2022-09-01T16:01:14;5.47;;;2.20;;
23228;SDS011;11783;50.350;6.576;2022-09-01T16:03:40;4.18;;;2.20;;
23228;SDS011;11783;50.350;6.576;2022-09-01T16:06:05;3.90;;;2.50;;
23228;SDS011;11783;50.350;6.576;2022-09-01T16:08:31;3.22;;;2.20;;
23228;SDS011;11783;50.350;6.576;2022-09-01T16:10:58;4.63;;;2.22;;
23228;SDS011;11783;50.350;6.576;2022-09-01T16:13:23;6.32;;;2.45;;